Time;durP1;ratioP1;P1;durP2;ratioP2;P2;SDS_P1;SDS_P2;PMS_P1;PMS_P2;Temp;Humidity;BMP_temperature;BMP_pressure;BME280_temperature;BME280_humidity;BME280_pressure;Samples;Min_cycle;Max_cycle;Signal;HPM_P1;HPM_P2
2023/06/12 00:01:17;;;;;;;5.43;4.63;;;18.30;66.20;;;17.40;75.84;95853.66;5029721;28;20167;-65
2023/06/12 00:03:43;;;;;;;7.00;5.18;;;18.30;66.40;;;17.36;76.03;95848.00;5031912;28;20446;-65
2023/06/12 00:06:09;;;;;;;6.53;5.20;;;18.20;66.30;;;17.35;75.83;95845.59;5032963;28;20048;-65
2023/06/12 00:08:35;;;;;;;5.60;5.10;;;18.20;66.50;;;17.34;76.01;95846.63;5031501;28;20049;-64
2023/06/12 00:11:01;;;;;;;11.10;5.55;;;18.20;66.60;;;17.34;76.04;95843.97;5032243;28;20116;-65
2023/06/12 00:13:27;;;;;;;5.68;4.90;;;18.20;66.70;;;17.31;75.84;95839.94;5030036;28;20030;-64
2023/06/12 00:15:53;;;;;;;5.10;4.57;;;18.20;66.70;;;17.27;76.56;95844.13;4998410;28;20033;-64
2023/06/12 00:18:19;;;;;;;6.47;5.65;;;18.10;66.80;;;17.23;76.75;95842.19;5032325;28;20025;-64
2023/06/12 00:20:44;;;;;;;5.20;4.53;;;18.10;66.80;;;17.20;76.68;95843.47;5030885;28;20517;-64
2023/06/12 00:23:10;;;;;;;7.55;5.22;;;18.10;67.00;;;17.20;77.11;95845.28;5033662;28;20028;-64
2023/06/12 00:25:36;;;;;;;5.38;4.80;;;18.10;67.10;;;17.19;76.76;95841.00;5030208;28;20033;-65
2023/06/12 00:28:03;;;;;;;6.25;5.30;;;18.10;67.10;;;17.17;76.93;95837.78;5032219;28;20104;-65
2023/06/12 00:30:28;;;;;;;6.32;5.68;;;18.00;67.30;;;17.11;77.49;95835.03;5030237;28;20025;-65
2023/06/12 00:32:54;;;;;;;5.32;4.82;;;18.00;67.40;;;17.09;77.74;95844.28;5048889;28;20523;-64
2023/06/12 00:35:20;;;;;;;5.22;4.72;;;18.00;67.40;;;17.07;77.70;95835.75;5014405;28;20033;-65
2023/06/12 00:37:46;;;;;;;5.45;4.90;;;18.00;67.40;;;17.06;78.21;95837.59;5048189;28;20451;-65
2023/06/12 00:40:12;;;;;;;6.32;5.28;;;17.90;67.40;;;17.07;77.63;95833.91;5028360;28;20021;-65
2023/06/12 00:42:45;;;;;;;10.20;6.03;;;17.90;67.50;;;17.04;78.10;95829.06;5047855;28;20112;-65
2023/06/12 00:45:15;;;;;;;6.25;4.97;;;17.90;67.40;;;17.00;77.59;95830.59;5015030;28;20392;-64
2023/06/12 00:47:42;;;;;;;6.15;5.05;;;17.80;67.40;;;16.99;77.63;95826.31;5032027;28;20083;-65
2023/06/12 00:50:12;;;;;;;11.13;5.53;;;17.80;67.60;;;16.95;78.58;95819.81;5028526;28;20031;-65
2023/06/12 00:52:41;;;;;;;8.25;5.50;;;17.80;67.60;;;16.92;78.23;95820.31;5032877;28;20028;-65
2023/06/12 00:55:07;;;;;;;8.10;5.80;;;17.80;67.50;;;16.88;78.86;95826.31;5029510;28;20145;-64
2023/06/12 00:57:32;;;;;;;10.02;5.93;;;17.80;67.50;;;16.84;78.50;95824.16;5029785;28;20561;-65
2023/06/12 01:00:00;;;;;;;6.35;5.75;;;17.70;67.60;;;16.86;78.69;95821.25;5031090;28;20029;-65
2023/06/12 01:02:26;;;;;;;5.93;5.30;;;17.70;67.60;;;16.86;78.71;95826.56;5029432;28;20033;-64
2023/06/12 01:04:52;;;;;;;6.13;5.50;;;17.80;67.60;;;16.87;78.53;95827.38;5031367;28;20115;-64
2023/06/12 01:07:29;;;;;;;5.90;5.32;;;17.80;67.60;;;16.85;79.27;95824.94;5028702;28;20025;-64
2023/06/12 01:10:15;;;;;;;8.32;5.85;;;17.80;67.40;;;16.82;80.05;95825.44;5030061;28;20032;-65
2023/06/12 01:12:41;;;;;;;6.20;5.43;;;17.70;67.50;;;16.77;78.90;95825.31;5050020;23;20537;-62
2023/06/12 01:15:07;;;;;;;6.28;5.68;;;17.70;67.70;;;16.77;78.86;95817.34;4974775;28;20045;-62
2023/06/12 01:17:32;;;;;;;6.22;5.63;;;17.70;67.70;;;16.77;79.64;95828.78;5002210;28;20038;-62
2023/06/12 01:20:03;;;;;;;7.18;5.93;;;17.70;67.70;;;16.77;78.93;95823.47;4993837;28;20042;-62
2023/06/12 01:22:29;;;;;;;6.15;5.65;;;17.70;67.70;;;16.75;79.36;95820.25;4980452;28;20041;-62
2023/06/12 01:25:10;;;;;;;6.15;5.55;;;17.70;67.80;;;16.76;80.05;95821.88;4958306;28;20030;-62
2023/06/12 01:27:53;;;;;;;6.93;5.68;;;17.70;67.80;;;16.73;80.47;95819.66;4988504;28;20038;-62
2023/06/12 01:30:32;;;;;;;6.18;5.47;;;17.60;67.80;;;16.71;80.98;95823.59;4957766;28;20391;-62
2023/06/12 01:32:58;;;;;;;6.97;5.72;;;17.60;68.10;;;16.68;79.90;95818.75;4959718;28;20038;-62
2023/06/12 01:35:24;;;;;;;6.82;6.13;;;17.60;68.30;;;16.66;80.08;95823.44;4953336;28;20124;-63
2023/06/12 01:37:56;;;;;;;7.60;6.40;;;17.60;68.40;;;16.64;81.00;95826.34;4956368;28;20569;-62
2023/06/12 01:40:22;;;;;;;6.28;5.68;;;17.60;68.40;;;16.62;80.62;95830.28;4959373;28;20402;-64
2023/06/12 01:42:47;;;;;;;7.20;5.50;;;17.50;68.50;;;16.58;80.10;95826.47;4972025;28;20517;-62
2023/06/12 01:45:13;;;;;;;6.32;5.72;;;17.50;68.60;;;16.54;80.71;95813.66;4952351;28;20039;-62
2023/06/12 01:47:39;;;;;;;7.20;6.20;;;17.50;68.50;;;16.54;81.16;95812.88;4987377;28;20399;-62
2023/06/12 01:50:06;;;;;;;6.40;5.80;;;17.50;68.70;;;16.48;81.22;95808.47;4988839;28;20134;-62
2023/06/12 01:52:35;;;;;;;7.57;5.85;;;17.50;68.70;;;16.45;81.18;95799.13;4974966;28;20022;-62
2023/06/12 01:55:02;;;;;;;8.13;6.43;;;17.40;68.90;;;16.41;81.42;95803.28;4974451;28;20054;-62
2023/06/12 01:57:28;;;;;;;7.30;6.03;;;17.40;69.00;;;16.37;81.84;95802.13;4993345;28;20129;-63
2023/06/12 01:59:53;;;;;;;7.20;6.50;;;17.30;69.20;;;16.34;81.56;95807.91;4993964;28;20490;-62
2023/06/12 02:02:20;;;;;;;7.57;6.47;;;17.30;69.30;;;16.28;82.40;95798.19;4957002;28;20037;-63
2023/06/12 02:04:46;;;;;;;8.93;5.93;;;17.30;69.40;;;16.27;81.75;95803.75;4975029;28;20081;-62
2023/06/12 02:07:12;;;;;;;7.80;6.72;;;17.20;69.40;;;16.26;82.61;95802.13;4992226;28;20080;-63
2023/06/12 02:09:37;;;;;;;8.10;7.03;;;17.20;69.70;;;16.19;82.84;95802.25;4975354;28;20121;-62
2023/06/12 02:12:03;;;;;;;7.10;6.35;;;17.20;69.70;;;16.18;82.95;95808.59;4976116;28;20033;-62
2023/06/12 02:14:29;;;;;;;7.50;6.80;;;17.10;69.80;;;16.14;83.55;95804.81;4993060;28;20035;-64
2023/06/12 02:16:55;;;;;;;6.72;6.03;;;17.10;70.00;;;16.16;83.87;95810.69;4976205;28;20058;-62
2023/06/12 02:19:25;;;;;;;9.80;6.60;;;17.10;70.20;;;16.12;84.77;95804.22;4972634;28;20026;-62
2023/06/12 02:21:53;;;;;;;7.70;6.53;;;17.10;70.20;;;16.06;83.84;95810.44;4991382;28;20031;-62
2023/06/12 02:24:19;;;;;;;7.55;6.85;;;17.00;70.50;;;16.05;84.32;95809.63;4958494;28;20035;-62
2023/06/12 02:26:45;;;;;;;7.28;6.45;;;17.00;70.80;;;16.00;84.40;95811.34;4992273;28;20121;-63
2023/06/12 02:29:14;;;;;;;8.35;6.40;;;17.00;70.90;;;15.97;85.87;95807.31;4956543;28;20065;-63
2023/06/12 02:31:40;;;;;;;7.78;7.07;;;16.90;71.00;;;15.92;85.46;95808.00;4990820;28;20104;-63
2023/06/12 02:34:06;;;;;;;8.27;7.47;;;16.90;71.20;;;15.95;85.47;95813.91;4956103;28;20038;-62
2023/06/12 02:36:33;;;;;;;15.18;13.20;;;16.90;71.30;;;15.92;86.06;95821.28;4989896;28;20034;-64
2023/06/12 02:39:01;;;;;;;16.98;15.10;;;16.90;71.60;;;15.90;86.60;95812.75;4991797;28;20041;-64
2023/06/12 02:41:27;;;;;;;9.70;8.27;;;16.90;72.00;;;15.90;86.40;95811.94;4947397;28;20034;-64
2023/06/12 02:43:53;;;;;;;8.52;7.45;;;16.90;71.80;;;15.89;86.67;95810.31;4988698;28;20089;-65
2023/06/12 02:46:18;;;;;;;12.85;11.63;;;16.90;71.60;;;15.86;86.64;95811.59;4992657;28;20034;-67
2023/06/12 02:48:44;;;;;;;20.15;18.05;;;16.80;71.80;;;15.83;87.28;95811.22;4992520;28;20521;-63
2023/06/12 02:51:10;;;;;;;10.90;9.05;;;16.80;72.10;;;15.79;87.99;95808.22;4991276;28;20142;-62
2023/06/12 02:53:35;;;;;;;8.85;7.72;;;16.80;72.00;;;15.73;87.55;95806.47;4993042;28;20466;-63
2023/06/12 02:56:01;;;;;;;9.52;7.40;;;16.70;72.10;;;15.69;88.48;95810.63;4993750;28;20030;-63
2023/06/12 02:58:27;;;;;;;8.25;7.47;;;16.70;72.20;;;15.69;88.33;95810.63;4975333;28;20090;-63
2023/06/12 03:00:53;;;;;;;9.55;8.02;;;16.60;72.50;;;15.65;89.01;95812.13;4975117;28;20019;-63
2023/06/12 03:03:25;;;;;;;8.02;7.32;;;16.60;72.70;;;15.61;89.75;95813.59;4971148;28;20046;-63
2023/06/12 03:05:50;;;;;;;9.90;8.25;;;16.60;72.80;;;15.61;88.89;95824.19;4975613;28;20041;-62
2023/06/12 03:08:16;;;;;;;11.13;9.77;;;16.60;72.80;;;15.60;89.71;95825.22;4990683;28;20521;-63
2023/06/12 03:10:43;;;;;;;11.13;9.85;;;16.60;72.90;;;15.60;90.66;95822.59;4974467;28;20117;-62
2023/06/12 03:13:08;;;;;;;8.95;8.05;;;16.60;73.10;;;15.58;90.05;95821.97;4991949;28;20113;-62
2023/06/12 03:15:34;;;;;;;10.75;7.88;;;16.60;73.20;;;15.54;90.77;95823.47;4990491;28;20039;-62
2023/06/12 03:18:00;;;;;;;8.52;7.70;;;16.50;73.40;;;15.51;90.58;95826.56;4992154;28;20045;-63
2023/06/12 03:20:26;;;;;;;10.93;8.77;;;16.50;73.30;;;15.50;91.60;95827.59;4990402;28;20052;-62
2023/06/12 03:22:52;;;;;;;11.02;9.93;;;16.50;73.40;;;15.50;91.52;95832.91;4977526;28;20061;-62
2023/06/12 03:25:20;;;;;;;12.15;10.98;;;16.50;73.60;;;15.48;92.04;95832.34;4976896;28;20041;-63
2023/06/12 03:27:46;;;;;;;10.73;9.63;;;16.50;73.80;;;15.46;91.77;95837.06;4973367;28;20114;-63
2023/06/12 03:30:12;;;;;;;12.35;11.05;;;16.50;74.00;;;15.43;93.09;95834.84;4990483;28;20030;-63
2023/06/12 03:32:38;;;;;;;11.85;10.65;;;16.40;74.10;;;15.43;93.07;95826.91;4990280;28;20529;-62
2023/06/12 03:35:04;;;;;;;9.95;8.95;;;16.50;74.10;;;15.44;92.44;95844.44;4958226;28;20117;-63
2023/06/12 03:37:30;;;;;;;9.90;8.90;;;16.50;74.00;;;15.44;93.03;95836.47;4991298;28;20031;-63
2023/06/12 03:39:56;;;;;;;9.13;8.25;;;16.50;74.20;;;15.42;93.48;95839.34;4990392;28;20057;-62
2023/06/12 03:42:22;;;;;;;10.43;8.57;;;16.50;74.20;;;15.45;93.92;95844.19;4973910;28;20079;-63
2023/06/12 03:44:47;;;;;;;8.93;8.02;;;16.50;74.20;;;15.46;94.11;95848.47;4955591;28;20110;-61
2023/06/12 03:47:14;;;;;;;9.85;8.27;;;16.60;74.00;;;15.45;94.57;95843.38;4990301;28;20034;-63
2023/06/12 03:49:40;;;;;;;11.13;9.27;;;16.60;74.20;;;15.42;94.57;95846.50;4989643;28;20039;-63
2023/06/12 03:52:06;;;;;;;10.93;8.65;;;16.60;74.20;;;15.42;94.60;95851.78;4990413;28;20023;-64
2023/06/12 03:54:35;;;;;;;14.02;9.95;;;16.60;74.40;;;15.43;95.32;95848.91;4988577;28;20117;-63
2023/06/12 03:57:01;;;;;;;20.27;15.35;;;16.60;74.30;;;15.44;96.02;95855.84;4975255;28;20504;-63
2023/06/12 03:59:26;;;;;;;10.45;8.80;;;16.60;74.60;;;15.43;96.17;95854.22;4991164;28;20026;-63
2023/06/12 04:01:52;;;;;;;12.88;9.88;;;16.60;74.50;;;15.42;95.63;95857.09;4991849;28;20184;-63
2023/06/12 04:04:18;;;;;;;12.05;10.65;;;16.50;74.60;;;15.41;96.67;95855.47;4954793;28;20124;-62
2023/06/12 04:06:45;;;;;;;13.35;11.95;;;16.60;74.70;;;15.42;96.80;95860.56;4972738;28;20034;-63
2023/06/12 04:09:17;;;;;;;11.15;10.15;;;16.60;74.70;;;15.42;96.63;95855.25;4990293;28;20045;-63
2023/06/12 04:11:43;;;;;;;11.70;10.50;;;16.60;74.80;;;15.44;96.89;95860.31;4975746;28;20037;-64
2023/06/12 04:14:09;;;;;;;13.52;10.88;;;16.60;74.80;;;15.45;96.89;95854.81;4970682;28;20121;-63
2023/06/12 04:16:35;;;;;;;18.27;16.38;;;16.60;74.80;;;15.47;97.11;95851.94;4969355;28;20522;-64
2023/06/12 04:19:03;;;;;;;11.68;10.50;;;16.60;74.90;;;15.48;97.66;95850.88;4972794;28;20037;-63
2023/06/12 04:21:35;;;;;;;10.50;9.50;;;16.60;75.00;;;15.49;98.02;95852.50;4989658;28;20442;-65
2023/06/12 04:24:03;;;;;;;12.00;9.48;;;16.70;75.00;;;15.49;98.31;95850.66;4987985;28;20034;-63
2023/06/12 04:26:29;;;;;;;11.18;9.98;;;16.70;75.10;;;15.52;99.07;95852.06;4990188;28;20023;-63
2023/06/12 04:28:56;;;;;;;11.77;9.80;;;16.70;75.10;;;15.51;99.23;95855.72;4991393;28;20119;-64
2023/06/12 04:31:23;;;;;;;12.07;9.18;;;16.70;75.20;;;15.52;99.56;95854.69;4989793;28;20034;-62
2023/06/12 04:33:51;;;;;;;11.15;9.70;;;16.70;75.30;;;15.55;100.00;95851.59;4990577;28;20057;-63
2023/06/12 04:36:17;;;;;;;11.13;9.98;;;16.80;75.40;;;15.55;100.00;95855.06;4991171;28;20038;-63
2023/06/12 04:38:50;;;;;;;11.05;9.82;;;16.70;75.50;;;15.59;100.00;95858.09;4973675;28;20026;-63
2023/06/12 04:41:20;;;;;;;12.40;10.23;;;16.80;75.60;;;15.63;100.00;95853.97;4967487;28;20075;-64
2023/06/12 04:43:49;;;;;;;12.07;10.98;;;16.80;75.50;;;15.64;99.95;95849.47;4988928;28;20541;-63
2023/06/12 04:46:18;;;;;;;10.75;9.65;;;16.90;75.60;;;15.68;100.00;95856.75;4989234;28;20064;-62
2023/06/12 04:48:44;;;;;;;12.38;11.10;;;16.90;75.60;;;15.69;100.00;95858.38;4989547;28;20050;-63
2023/06/12 04:51:10;;;;;;;11.90;10.73;;;16.90;75.30;;;15.71;100.00;95844.88;4989595;28;20030;-62
2023/06/12 04:53:39;;;;;;;14.20;11.95;;;16.90;75.10;;;15.71;100.00;95844.88;4971423;28;20058;-64
2023/06/12 04:56:08;;;;;;;12.77;11.57;;;17.00;75.20;;;15.76;100.00;95848.47;4989435;28;20053;-63
2023/06/12 04:58:37;;;;;;;16.02;14.52;;;17.00;75.20;;;15.78;100.00;95854.34;4970843;28;20039;-63
2023/06/12 05:01:03;;;;;;;14.75;12.98;;;17.10;75.50;;;15.82;100.00;95847.53;4973561;28;20532;-64
2023/06/12 05:03:32;;;;;;;15.10;13.50;;;17.10;75.20;;;15.86;100.00;95854.03;4988812;28;20035;-63
2023/06/12 05:05:58;;;;;;;13.88;12.43;;;17.10;75.00;;;15.87;100.00;95850.34;4988659;28;20030;-64
2023/06/12 05:08:24;;;;;;;12.02;10.82;;;17.10;75.00;;;15.93;100.00;95848.63;4968977;28;20038;-63
2023/06/12 05:10:50;;;;;;;13.82;10.60;;;17.20;74.90;;;15.96;100.00;95858.75;4989391;28;20034;-63
2023/06/12 05:13:15;;;;;;;12.30;11.07;;;17.30;74.50;;;16.00;100.00;95859.91;4989088;28;20039;-62
2023/06/12 05:15:42;;;;;;;10.57;9.57;;;17.40;74.50;;;16.07;100.00;95865.94;4955976;28;20054;-63
2023/06/12 05:18:08;;;;;;;11.50;10.40;;;17.40;74.30;;;16.13;99.13;95866.88;4983964;28;20037;-63
2023/06/12 05:20:33;;;;;;;11.70;10.50;;;17.50;73.80;;;16.17;99.66;95865.38;4990252;28;20035;-63
2023/06/12 05:22:59;;;;;;;13.63;11.95;;;17.50;73.60;;;16.21;99.40;95869.19;4989355;28;20546;-64
2023/06/12 05:25:25;;;;;;;15.07;12.07;;;17.60;73.80;;;16.25;98.71;95872.97;4989630;28;20117;-64
2023/06/12 05:27:51;;;;;;;12.55;11.35;;;17.60;73.30;;;16.32;98.79;95873.69;4993490;28;20034;-64
2023/06/12 05:30:17;;;;;;;12.23;10.35;;;17.70;72.90;;;16.38;97.79;95871.97;4973869;28;20035;-64
2023/06/12 05:32:42;;;;;;;13.13;11.02;;;17.70;72.60;;;16.44;97.83;95871.84;4992645;28;20584;-64
2023/06/12 05:35:08;;;;;;;13.45;9.68;;;17.80;72.50;;;16.53;96.55;95880.28;4994302;28;20070;-63
2023/06/12 05:37:34;;;;;;;10.68;9.57;;;18.00;71.50;;;16.62;95.63;95870.91;4992804;28;20169;-63
2023/06/12 05:40:00;;;;;;;14.27;9.20;;;18.10;71.40;;;16.70;95.35;95875.09;4994149;28;20140;-64
2023/06/12 05:42:26;;;;;;;10.52;9.43;;;18.10;70.80;;;16.80;93.95;95872.66;4974023;28;20105;-64
2023/06/12 05:44:52;;;;;;;13.20;9.90;;;18.30;70.20;;;16.89;93.86;95873.91;4964605;28;20476;-65
2023/06/12 05:47:17;;;;;;;12.27;8.90;;;18.40;70.20;;;16.98;93.27;95872.53;4992896;28;20526;-64
2023/06/12 05:49:43;;;;;;;10.88;8.48;;;18.50;69.70;;;17.08;92.39;95871.91;4975668;28;20022;-64
2023/06/12 05:52:10;;;;;;;10.85;9.20;;;18.60;69.30;;;17.17;91.48;95877.66;4992943;28;20410;-64
2023/06/12 05:54:36;;;;;;;13.75;8.73;;;18.70;68.40;;;17.26;90.57;95868.28;4992542;28;20039;-64
2023/06/12 05:57:02;;;;;;;11.20;8.77;;;18.80;68.10;;;17.37;90.29;95875.41;4976682;28;20403;-64
2023/06/12 05:59:28;;;;;;;10.63;8.45;;;18.90;67.50;;;17.48;89.73;95874.56;4992200;28;20037;-64
2023/06/12 06:01:57;;;;;;;13.23;9.05;;;19.10;67.50;;;17.57;87.53;95867.00;4992657;28;20026;-65
2023/06/12 06:04:23;;;;;;;10.98;8.20;;;19.20;66.20;;;17.72;87.35;95878.75;4956901;28;20042;-65
2023/06/12 06:06:50;;;;;;;12.32;7.90;;;19.50;65.90;;;17.85;86.86;95877.63;4992595;28;20030;-64
2023/06/12 06:09:15;;;;;;;16.35;8.85;;;19.60;65.10;;;18.06;85.99;95884.13;4992399;28;20383;-64
2023/06/12 06:11:41;;;;;;;11.23;8.57;;;19.80;64.70;;;18.23;84.88;95882.28;4991947;28;20089;-64
2023/06/12 06:14:07;;;;;;;9.55;7.97;;;20.10;63.40;;;18.45;84.52;95892.19;4987909;28;20502;-64
2023/06/12 06:16:33;;;;;;;8.32;7.53;;;20.40;63.10;;;18.66;83.68;95889.63;4992482;28;20565;-65
2023/06/12 06:18:58;;;;;;;13.48;7.90;;;20.60;61.70;;;18.87;82.04;95890.72;4976269;28;20085;-64
2023/06/12 06:21:24;;;;;;;8.70;7.80;;;20.80;61.00;;;19.12;81.26;95881.44;4992049;28;20026;-64
2023/06/12 06:23:50;;;;;;;12.55;7.82;;;21.10;59.90;;;19.33;80.49;95883.28;5007690;28;20041;-63
2023/06/12 06:26:16;;;;;;;8.90;7.38;;;21.40;59.70;;;19.53;78.23;95885.38;4970085;28;20029;-64
2023/06/12 06:28:41;;;;;;;7.35;6.65;;;21.60;58.70;;;19.74;78.10;95889.91;4992648;28;20162;-64
2023/06/12 06:31:07;;;;;;;7.68;6.35;;;21.90;58.80;;;19.91;77.61;95879.13;4992131;28;20057;-64
2023/06/12 06:33:33;;;;;;;11.05;6.00;;;22.00;57.20;;;20.11;76.22;95881.97;4973279;28;20073;-63
2023/06/12 06:35:59;;;;;;;20.98;7.40;;;22.40;55.60;;;20.26;74.16;95886.66;4960120;28;20453;-64
2023/06/12 06:38:25;;;;;;;11.23;6.40;;;22.50;54.80;;;20.40;73.63;95882.53;4991116;28;20085;-64
2023/06/12 06:40:51;;;;;;;12.93;6.40;;;22.70;53.80;;;20.64;71.87;95887.50;4974451;28;20113;-64
2023/06/12 06:43:17;;;;;;;12.57;6.10;;;22.90;52.50;;;20.87;70.39;95888.97;4940381;28;20384;-64
2023/06/12 06:45:43;;;;;;;13.57;5.70;;;23.10;52.10;;;21.03;68.99;95885.28;4992068;28;20036;-64
2023/06/12 06:48:11;;;;;;;41.28;7.78;;;23.30;51.60;;;21.25;68.24;95885.97;4972612;28;20034;-65
2023/06/12 06:50:37;;;;;;;7.85;6.03;;;23.60;51.30;;;21.45;67.25;95887.91;4958532;28;20117;-64
2023/06/12 06:53:03;;;;;;;13.80;5.53;;;23.90;50.50;;;21.61;65.79;95886.09;4975662;28;20392;-64
2023/06/12 06:55:29;;;;;;;18.08;5.90;;;24.10;49.00;;;21.82;65.33;95884.28;4974817;28;20094;-65
2023/06/12 06:57:54;;;;;;;20.65;6.40;;;24.50;49.10;;;22.02;65.52;95879.75;4991406;28;20026;-64
2023/06/12 07:00:21;;;;;;;10.50;5.25;;;24.70;48.60;;;22.24;64.99;95881.41;4991591;28;20118;-65
2023/06/12 07:02:48;;;;;;;12.45;5.50;;;25.10;48.20;;;22.44;63.99;95872.56;4991338;28;20030;-64
2023/06/12 07:05:15;;;;;;;7.75;5.30;;;25.30;47.20;;;22.62;63.74;95882.72;4991481;28;20065;-63
2023/06/12 07:07:41;;;;;;;7.57;5.10;;;25.60;47.40;;;22.83;62.68;95878.16;4992359;28;20133;-65
2023/06/12 07:10:07;;;;;;;6.43;5.28;;;25.70;46.10;;;23.00;61.33;95884.03;4975300;28;20038;-64
2023/06/12 07:12:33;;;;;;;8.15;5.60;;;26.00;45.30;;;23.19;60.85;95874.31;4973199;28;20030;-65
2023/06/12 07:14:59;;;;;;;9.57;5.10;;;26.10;45.40;;;23.39;60.47;95872.63;4991491;28;20031;-65
2023/06/12 07:17:25;;;;;;;9.82;5.53;;;26.40;45.30;;;23.59;60.11;95875.25;4991239;28;20034;-64
2023/06/12 07:19:51;;;;;;;18.50;6.13;;;26.60;45.00;;;23.78;59.40;95867.38;4991713;28;20441;-64
2023/06/12 07:22:16;;;;;;;13.98;5.43;;;26.80;44.70;;;23.95;58.60;95865.06;4991331;28;20050;-65
2023/06/12 07:24:42;;;;;;;13.00;5.10;;;26.90;44.90;;;24.11;57.87;95873.84;4974682;28;20070;-64
2023/06/12 07:27:08;;;;;;;15.25;5.30;;;27.00;44.00;;;24.27;58.31;95872.66;4986038;28;20041;-65
2023/06/12 07:29:34;;;;;;;9.70;5.10;;;27.30;44.90;;;24.42;58.63;95883.28;4991766;28;20560;-65
2023/06/12 07:32:00;;;;;;;73.35;8.43;;;27.50;44.40;;;24.58;57.34;95870.53;4992514;28;20066;-65
2023/06/12 07:34:26;;;;;;;49.03;7.10;;;27.70;42.80;;;24.76;56.89;95878.97;4974550;28;20076;-65
2023/06/12 07:36:52;;;;;;;16.55;5.28;;;28.00;41.80;;;25.00;56.05;95872.56;4991108;28;20453;-64
2023/06/12 07:39:18;;;;;;;20.27;5.20;;;28.30;41.50;;;25.29;55.37;95877.88;4990764;28;20518;-64
2023/06/12 07:41:44;;;;;;;8.13;5.00;;;28.60;41.60;;;25.54;54.49;95868.69;4991441;28;20033;-64
2023/06/12 07:44:13;;;;;;;65.38;7.72;;;28.80;40.40;;;25.77;53.43;95866.25;4989250;28;20038;-64
2023/06/12 07:46:41;;;;;;;28.00;6.85;;;29.00;39.50;;;26.00;50.44;95851.91;4975072;28;20033;-64
2023/06/12 07:49:06;;;;;;;15.80;5.22;;;29.10;38.80;;;26.12;51.61;95857.66;4972046;28;20031;-65
2023/06/12 07:51:32;;;;;;;13.43;5.03;;;29.30;38.60;;;26.35;50.59;95850.56;4989147;28;20096;-65
2023/06/12 07:53:58;;;;;;;6.03;5.10;;;29.50;38.80;;;26.51;50.43;95859.22;4989158;28;20034;-66
2023/06/12 07:56:24;;;;;;;9.57;5.00;;;29.60;38.70;;;26.64;49.93;95853.03;4990575;28;20514;-64
2023/06/12 07:58:50;;;;;;;9.90;5.38;;;29.80;38.70;;;26.91;49.73;95856.88;4957399;28;20308;-65
2023/06/12 08:01:17;;;;;;;10.48;4.72;;;30.00;38.80;;;27.04;48.25;95850.72;4955074;28;20034;-65
2023/06/12 08:03:43;;;;;;;12.25;4.78;;;30.00;36.60;;;27.15;47.41;95847.50;4956333;28;20035;-65
2023/06/12 08:06:13;;;;;;;10.15;5.00;;;30.00;37.50;;;27.32;45.81;95838.00;4985181;28;20030;-64
2023/06/12 08:08:46;;;;;;;6.35;5.10;;;30.10;37.70;;;27.45;45.39;95829.91;4974175;28;20045;-64
2023/06/12 08:11:12;;;;;;;15.73;5.90;;;30.20;37.80;;;27.57;46.75;95842.06;4982225;28;20502;-63
2023/06/12 08:13:38;;;;;;;7.85;4.35;;;30.50;38.10;;;27.66;47.60;95840.31;4989267;28;20062;-65
2023/06/12 08:16:07;;;;;;;8.00;4.80;;;30.70;38.10;;;27.85;46.35;95843.66;4958162;28;20478;-64
2023/06/12 08:18:33;;;;;;;13.73;5.63;;;30.90;36.80;;;28.03;45.72;95841.88;4991342;28;20421;-63
2023/06/12 08:20:58;;;;;;;9.00;5.05;;;31.10;35.90;;;28.19;45.31;95836.91;4971467;28;20026;-65
2023/06/12 08:23:24;;;;;;;7.15;4.40;;;31.20;36.20;;;28.31;45.65;95835.28;4973519;28;20891;-63
2023/06/12 08:25:50;;;;;;;12.27;4.75;;;31.50;35.70;;;28.56;44.27;95835.75;4972389;28;20038;-65
2023/06/12 08:28:16;;;;;;;15.60;5.28;;;31.60;35.20;;;28.76;43.81;95837.16;4955122;28;20026;-63
2023/06/12 08:30:42;;;;;;;10.55;4.80;;;31.70;35.40;;;28.95;43.63;95841.22;4991342;28;20038;-65
2023/06/12 08:33:08;;;;;;;8.25;4.03;;;32.10;35.20;;;29.09;43.17;95846.56;4973799;28;20053;-63
2023/06/12 08:35:34;;;;;;;9.82;4.22;;;32.20;34.30;;;29.21;42.38;95835.94;4968583;28;20037;-64
2023/06/12 08:38:01;;;;;;;7.65;4.32;;;32.10;34.30;;;29.40;41.76;95832.13;4991249;28;20030;-64
2023/06/12 08:40:27;;;;;;;12.75;6.03;;;32.30;33.40;;;29.52;41.61;95835.06;4990748;28;20031;-64
2023/06/12 08:42:52;;;;;;;6.68;3.90;;;31.90;35.20;;;29.65;41.56;95839.56;4973620;28;20483;-65
2023/06/12 08:45:19;;;;;;;6.55;4.40;;;32.30;35.20;;;29.80;42.02;95836.38;4989810;28;20046;-64
2023/06/12 08:47:48;;;;;;;6.78;4.35;;;32.50;35.10;;;29.90;39.48;95818.22;4972847;28;20026;-64
2023/06/12 08:50:17;;;;;;;7.50;4.40;;;32.40;33.40;;;29.79;40.31;95833.97;4989601;28;20032;-65
2023/06/12 08:52:42;;;;;;;6.28;4.60;;;32.10;34.30;;;29.81;40.11;95835.25;4956818;28;20045;-64
2023/06/12 08:55:09;;;;;;;8.07;4.07;;;32.40;33.00;;;29.91;39.55;95825.22;4989482;28;20464;-65
2023/06/12 08:57:37;;;;;;;8.13;4.75;;;32.50;32.20;;;29.97;37.74;95818.53;4955153;28;20034;-65
2023/06/12 09:00:11;;;;;;;10.20;4.90;;;32.50;32.80;;;29.93;38.87;95828.41;4973661;28;20035;-64
2023/06/12 09:02:40;;;;;;;7.75;3.78;;;32.50;33.00;;;29.98;38.25;95820.13;4990302;28;20030;-64
2023/06/12 09:05:07;;;;;;;8.77;3.93;;;32.40;31.90;;;29.79;38.09;95829.34;4973812;28;20031;-64
2023/06/12 09:07:36;;;;;;;7.07;4.07;;;31.90;33.00;;;29.69;36.68;95808.00;4970876;28;20502;-64
2023/06/12 09:10:01;;;;;;;9.55;3.83;;;31.80;32.00;;;29.47;37.12;95819.75;4972454;28;20058;-64
2023/06/12 09:12:29;;;;;;;7.55;4.10;;;31.50;31.80;;;29.48;36.33;95807.00;4988841;28;20050;-64
2023/06/12 09:14:55;;;;;;;6.07;3.60;;;32.00;30.90;;;29.48;36.06;95804.31;4972899;28;20029;-64
2023/06/12 09:17:21;;;;;;;7.50;4.18;;;31.90;30.40;;;29.59;36.03;95808.28;4973114;28;20034;-64
2023/06/12 09:19:48;;;;;;;7.15;5.80;;;32.20;30.60;;;29.82;36.26;95801.59;4940110;28;20046;-65
2023/06/12 09:22:17;;;;;;;6.68;3.85;;;32.80;30.80;;;30.09;35.47;95815.97;4968525;28;20519;-64
2023/06/12 09:24:43;;;;;;;5.87;4.00;;;33.00;30.10;;;30.30;35.43;95810.69;4988147;28;20576;-64
2023/06/12 09:27:09;;;;;;;5.97;3.95;;;33.30;29.00;;;30.41;34.68;95801.91;4967415;28;20067;-64
2023/06/12 09:29:35;;;;;;;7.43;4.38;;;33.60;28.20;;;30.62;33.84;95798.53;4986600;28;20124;-64
2023/06/12 09:32:02;;;;;;;7.75;4.13;;;33.80;27.90;;;30.71;33.59;95799.28;4990637;28;20069;-64
2023/06/12 09:34:30;;;;;;;6.47;4.50;;;33.80;27.90;;;30.91;33.13;95790.44;4988837;28;20034;-64
2023/06/12 09:36:56;;;;;;;6.55;4.53;;;34.20;27.50;;;31.16;34.08;95793.34;4989577;28;20034;-64
2023/06/12 09:39:26;;;;;;;8.05;4.40;;;34.40;27.60;;;30.90;31.90;95771.75;4989113;28;20027;-63
2023/06/12 09:41:53;;;;;;;5.68;3.90;;;33.30;27.80;;;30.82;33.30;95789.69;4987070;28;20058;-64
2023/06/12 09:44:23;;;;;;;6.68;3.60;;;33.60;27.70;;;31.00;32.30;95774.88;4953703;28;20031;-65
2023/06/12 09:46:50;;;;;;;4.47;2.90;;;33.80;28.00;;;31.04;32.07;95785.91;4987785;28;20038;-64
2023/06/12 09:49:19;;;;;;;6.15;4.03;;;33.70;27.20;;;31.03;33.00;95784.31;4968561;28;20114;-64
2023/06/12 09:51:49;;;;;;;7.53;3.92;;;34.00;28.40;;;31.08;31.81;95776.75;4989367;28;20031;-64
2023/06/12 09:54:16;;;;;;;7.10;3.40;;;33.90;26.70;;;30.97;33.02;95783.69;4953504;28;20050;-64
2023/06/12 09:56:44;;;;;;;9.52;3.25;;;33.90;28.10;;;31.26;33.18;95784.84;4955829;28;20046;-65
2023/06/12 09:59:17;;;;;;;8.00;3.67;;;34.60;28.20;;;31.47;31.13;95760.44;4985141;28;20118;-64
2023/06/12 10:01:46;;;;;;;10.65;3.55;;;34.80;26.90;;;31.55;32.09;95760.34;4972304;28;20035;-66
2023/06/12 10:04:12;;;;;;;14.82;3.10;;;35.00;27.00;;;31.78;31.92;95773.66;4963184;28;20078;-64
2023/06/12 10:06:38;;;;;;;7.78;3.60;;;35.30;25.90;;;32.09;32.43;95771.28;4987424;28;20035;-64
2023/06/12 10:09:06;;;;;;;7.93;3.28;;;36.00;26.40;;;32.40;32.02;95768.13;4972961;28;20065;-64
2023/06/12 10:11:32;;;;;;;11.13;3.80;;;36.40;24.70;;;32.61;31.78;95770.78;4972458;28;20170;-65
2023/06/12 10:13:58;;;;;;;5.20;2.83;;;36.70;25.70;;;32.78;30.62;95754.22;4941945;28;20067;-64